Time;durP1;ratioP1;P1;durP2;ratioP2;P2;SDS_P1;SDS_P2;PMS_P1;PMS_P2;Temp;Humidity;BMP_temperature;BMP_pressure;BME280_temperature;BME280_humidity;BME280_pressure;Samples;Min_cycle;Max_cycle;Signal;HPM_P1;HPM_P2
2022/07/06 00:01:16;;;;;;;5.63;1.45;;;14.00;99.90;;;;;;5051942;28;20013;-65
2022/07/06 00:03:42;;;;;;;8.10;2.47;;;14.00;99.90;;;;;;5049858;28;20167;-67
2022/07/06 00:06:08;;;;;;;7.07;2.00;;;14.00;99.90;;;;;;5052426;28;20055;-66
2022/07/06 00:08:33;;;;;;;10.80;3.72;;;14.00;99.90;;;;;;5054405;28;20040;-65
2022/07/06 00:10:59;;;;;;;2.80;1.25;;;14.00;99.90;;;;;;5051130;28;20021;-65
2022/07/06 00:13:25;;;;;;;7.65;1.73;;;14.00;99.90;;;;;;5053961;28;20072;-64
2022/07/06 00:15:51;;;;;;;6.55;1.55;;;14.10;99.90;;;;;;5051592;28;20017;-64
2022/07/06 00:18:17;;;;;;;6.95;2.08;;;14.00;99.90;;;;;;5049304;28;20032;-63
2022/07/06 00:20:42;;;;;;;7.32;1.88;;;14.10;99.90;;;;;;5048468;28;20017;-65
2022/07/06 00:23:08;;;;;;;6.20;2.30;;;14.20;99.90;;;;;;5051141;28;20575;-64
2022/07/06 00:25:33;;;;;;;5.03;2.28;;;14.20;99.90;;;;;;5051361;28;20081;-67
2022/07/06 00:27:59;;;;;;;4.43;1.90;;;14.20;99.90;;;;;;5050679;28;20048;-63
2022/07/06 00:30:25;;;;;;;3.08;1.60;;;14.20;99.90;;;;;;5055318;28;20036;-65
2022/07/06 00:32:51;;;;;;;4.10;1.30;;;14.30;99.90;;;;;;5054532;28;20037;-64
2022/07/06 00:35:16;;;;;;;4.47;0.90;;;14.40;99.90;;;;;;5052826;28;20437;-64
2022/07/06 00:37:42;;;;;;;3.47;0.95;;;14.50;99.90;;;;;;5052467;28;20021;-67
2022/07/06 00:40:08;;;;;;;4.97;1.25;;;14.50;99.90;;;;;;5054021;28;20029;-64
2022/07/06 00:42:44;;;;;;;4.85;1.45;;;14.60;99.90;;;;;;5055716;28;20038;-63
2022/07/06 00:45:11;;;;;;;5.72;1.67;;;14.70;99.90;;;;;;5055120;28;20431;-64
2022/07/06 00:47:37;;;;;;;4.43;1.30;;;14.70;99.90;;;;;;5055431;28;20055;-64
2022/07/06 00:50:22;;;;;;;6.68;1.67;;;14.80;99.90;;;;;;5055919;28;20474;-65
2022/07/06 00:52:56;;;;;;;4.28;1.50;;;14.80;99.90;;;;;;5053157;28;20028;-65
2022/07/06 00:55:24;;;;;;;3.40;1.05;;;14.80;99.90;;;;;;5052565;28;20025;-64
2022/07/06 00:57:50;;;;;;;7.00;1.45;;;14.80;99.90;;;;;;5053716;28;20035;-65
2022/07/06 01:00:18;;;;;;;3.08;1.48;;;14.80;99.90;;;;;;5053881;28;20021;-64
2022/07/06 01:02:45;;;;;;;6.95;1.23;;;14.80;99.90;;;;;;5053766;28;20017;-65
2022/07/06 01:05:12;;;;;;;3.75;1.00;;;14.80;99.90;;;;;;5057500;28;20040;-64
2022/07/06 01:07:41;;;;;;;6.57;1.65;;;14.80;99.90;;;;;;5055108;28;20049;-68
2022/07/06 01:10:08;;;;;;;7.43;1.92;;;14.80;99.90;;;;;;5055622;28;20024;-66
2022/07/06 01:12:38;;;;;;;4.30;1.25;;;14.80;99.90;;;;;;5051846;28;20044;-67
2022/07/06 01:15:05;;;;;;;7.05;1.60;;;14.80;99.90;;;;;;5053851;28;20091;-69
2022/07/06 01:17:32;;;;;;;5.22;1.65;;;14.80;99.90;;;;;;5052837;28;20024;-64
2022/07/06 01:20:07;;;;;;;4.68;1.80;;;14.90;99.90;;;;;;5052851;28;20041;-66
2022/07/06 01:22:33;;;;;;;5.10;1.52;;;14.80;99.90;;;;;;5051807;28;20025;-65
2022/07/06 01:24:58;;;;;;;10.80;3.30;;;14.90;99.90;;;;;;5053873;28;20028;-64
2022/07/06 01:27:24;;;;;;;7.97;2.25;;;14.90;99.90;;;;;;5051775;28;20094;-67
2022/07/06 01:29:49;;;;;;;7.15;1.25;;;14.80;99.90;;;;;;5050312;28;20029;-68
2022/07/06 01:32:15;;;;;;;4.78;2.03;;;14.90;99.90;;;;;;5053982;28;20033;-65
2022/07/06 01:34:41;;;;;;;5.72;1.50;;;14.80;99.90;;;;;;5053442;28;20024;-66
2022/07/06 01:37:06;;;;;;;4.47;1.48;;;14.80;99.90;;;;;;5052415;28;20028;-67
2022/07/06 01:39:32;;;;;;;4.70;1.42;;;14.80;99.90;;;;;;5065757;28;20108;-64
2022/07/06 01:41:57;;;;;;;8.38;2.08;;;14.90;99.90;;;;;;5058371;28;20025;-64
2022/07/06 01:44:23;;;;;;;5.55;1.83;;;14.90;99.90;;;;;;5068890;28;20036;-65
2022/07/06 01:46:48;;;;;;;8.13;2.75;;;14.80;99.90;;;;;;5037341;28;20029;-65
2022/07/06 01:49:14;;;;;;;5.93;2.08;;;14.90;99.90;;;;;;5062237;28;20519;-67
2022/07/06 01:51:40;;;;;;;3.00;1.20;;;14.80;99.90;;;;;;5061517;28;20355;-65
2022/07/06 01:54:05;;;;;;;4.55;1.70;;;14.90;99.90;;;;;;5057375;28;20021;-64
2022/07/06 01:56:31;;;;;;;5.72;2.50;;;14.90;99.90;;;;;;5056222;28;20032;-64
2022/07/06 01:58:57;;;;;;;9.15;2.97;;;14.90;99.90;;;;;;5067253;28;20021;-66
2022/07/06 02:01:23;;;;;;;7.10;2.08;;;14.90;99.90;;;;;;5059849;28;20056;-64
2022/07/06 02:03:49;;;;;;;7.25;2.20;;;15.00;99.90;;;;;;5059354;28;20028;-64
2022/07/06 02:06:14;;;;;;;7.43;1.88;;;14.90;99.90;;;;;;5040403;28;20025;-66
2022/07/06 02:08:41;;;;;;;5.57;1.73;;;14.90;99.90;;;;;;5069664;28;20036;-63
2022/07/06 02:11:08;;;;;;;5.20;2.10;;;14.90;99.90;;;;;;5052989;28;20024;-64
2022/07/06 02:13:34;;;;;;;6.32;2.22;;;14.90;99.90;;;;;;5052248;28;20808;-64
2022/07/06 02:16:01;;;;;;;4.22;2.13;;;14.80;99.90;;;;;;5051870;28;20064;-64
2022/07/06 02:18:26;;;;;;;4.20;1.40;;;14.80;99.90;;;;;;5060923;28;20100;-65
2022/07/06 02:20:52;;;;;;;5.15;2.08;;;14.80;99.90;;;;;;5053077;28;20522;-65
2022/07/06 02:23:18;;;;;;;6.75;2.15;;;14.80;99.90;;;;;;5052938;28;20485;-64
2022/07/06 02:25:44;;;;;;;3.85;1.05;;;14.80;99.90;;;;;;5052705;28;20025;-65
2022/07/06 02:28:09;;;;;;;4.40;1.20;;;14.80;99.90;;;;;;5052978;28;20044;-68
2022/07/06 02:30:37;;;;;;;3.38;1.30;;;14.80;99.90;;;;;;5051274;28;20450;-64
2022/07/06 02:33:08;;;;;;;5.05;1.20;;;14.90;99.90;;;;;;5048158;28;20124;-65
2022/07/06 02:35:41;;;;;;;7.93;1.42;;;14.90;99.90;;;;;;5041527;28;20109;-69
2022/07/06 02:38:12;;;;;;;4.70;1.63;;;15.00;99.90;;;;;;5050503;28;20028;-67
2022/07/06 02:40:43;;;;;;;3.33;1.45;;;15.00;99.90;;;;;;5071925;28;20054;-64
2022/07/06 02:43:12;;;;;;;6.45;1.90;;;15.10;99.90;;;;;;5050496;28;20029;-63
2022/07/06 02:45:39;;;;;;;6.25;1.13;;;15.10;99.90;;;;;;5050632;28;20443;-68
2022/07/06 02:48:05;;;;;;;4.32;0.95;;;15.20;99.90;;;;;;5052512;28;20041;-64
2022/07/06 02:50:31;;;;;;;6.03;1.33;;;15.30;99.90;;;;;;5051972;28;20040;-65
2022/07/06 02:52:58;;;;;;;6.57;1.92;;;15.30;99.90;;;;;;5049543;28;20017;-64
2022/07/06 02:55:24;;;;;;;5.13;1.48;;;15.40;99.90;;;;;;5044824;28;20355;-64
2022/07/06 02:57:50;;;;;;;3.42;0.90;;;15.50;99.90;;;;;;5052024;28;20036;-64
2022/07/06 03:00:16;;;;;;;5.55;1.30;;;15.50;99.90;;;;;;5051453;28;20075;-63
2022/07/06 03:02:44;;;;;;;4.32;0.95;;;15.60;99.90;;;;;;5051691;28;20029;-65
2022/07/06 03:05:13;;;;;;;4.20;1.05;;;15.60;99.90;;;;;;5050791;28;20110;-67
2022/07/06 03:07:41;;;;;;;6.18;1.30;;;15.70;99.90;;;;;;5050838;28;20070;-67
2022/07/06 03:10:11;;;;;;;4.90;1.00;;;15.70;99.90;;;;;;5050883;28;20031;-65
2022/07/06 03:12:42;;;;;;;4.45;1.23;;;15.70;99.90;;;;;;5047076;28;20029;-64
2022/07/06 03:15:17;;;;;;;5.80;1.10;;;15.70;99.90;;;;;;5043294;28;20025;-63
2022/07/06 03:17:53;;;;;;;4.32;0.95;;;15.80;99.90;;;;;;5052143;28;20033;-64
2022/07/06 03:20:27;;;;;;;3.17;0.93;;;15.80;99.90;;;;;;5049787;28;20478;-68
2022/07/06 03:22:53;;;;;;;2.10;1.08;;;15.80;99.90;;;;;;5049835;28;20033;-69
2022/07/06 03:25:18;;;;;;;3.22;1.33;;;15.90;99.90;;;;;;5052261;28;20025;-63
2022/07/06 03:27:44;;;;;;;5.30;1.20;;;15.90;99.90;;;;;;5052299;28;20033;-63
2022/07/06 03:30:10;;;;;;;2.08;0.80;;;15.90;99.90;;;;;;5052438;28;20429;-66
2022/07/06 03:32:35;;;;;;;2.90;0.85;;;16.00;99.90;;;;;;5050699;28;20490;-65
2022/07/06 03:35:01;;;;;;;3.92;1.00;;;16.00;99.90;;;;;;5044962;28;20032;-64
2022/07/06 03:37:26;;;;;;;9.38;1.90;;;16.00;99.90;;;;;;5046563;28;20529;-64
2022/07/06 03:39:52;;;;;;;5.13;1.15;;;16.00;99.90;;;;;;5049349;28;20454;-64
2022/07/06 03:42:17;;;;;;;3.50;1.20;;;16.00;99.90;;;;;;5050645;28;20020;-66
2022/07/06 03:44:43;;;;;;;4.75;1.25;;;16.00;99.90;;;;;;5050252;28;20094;-64
2022/07/06 03:47:09;;;;;;;3.03;1.17;;;16.00;99.90;;;;;;5050457;28;20036;-65
2022/07/06 03:49:34;;;;;;;4.72;1.13;;;15.90;99.90;;;;;;5050262;28;20091;-64
2022/07/06 03:52:00;;;;;;;4.30;1.15;;;15.90;99.90;;;;;;5049572;28;20025;-64
2022/07/06 03:54:25;;;;;;;7.18;1.52;;;15.90;99.90;;;;;;5050060;28;20423;-65
2022/07/06 03:56:51;;;;;;;2.63;1.20;;;15.90;99.90;;;;;;5049221;28;20039;-64
2022/07/06 03:59:16;;;;;;;2.22;1.08;;;15.90;99.90;;;;;;5050773;28;20021;-66
2022/07/06 04:01:42;;;;;;;2.22;0.90;;;15.90;99.90;;;;;;5050000;28;20023;-67
2022/07/06 04:04:08;;;;;;;5.50;1.30;;;15.90;99.90;;;;;;5050020;28;20553;-68
2022/07/06 04:06:34;;;;;;;5.28;1.05;;;15.90;99.90;;;;;;5054246;28;20024;-66
2022/07/06 04:09:00;;;;;;;4.80;1.80;;;15.80;99.90;;;;;;5054138;28;20025;-64
2022/07/06 04:11:26;;;;;;;5.18;2.13;;;15.80;99.90;;;;;;5054595;28;20028;-63
2022/07/06 04:13:51;;;;;;;8.20;1.10;;;15.80;99.90;;;;;;5050182;28;20358;-64
2022/07/06 04:16:17;;;;;;;5.90;1.27;;;15.80;99.90;;;;;;5050460;28;20053;-65
2022/07/06 04:18:42;;;;;;;8.50;1.10;;;15.80;99.90;;;;;;5054431;28;20414;-65
2022/07/06 04:21:08;;;;;;;5.07;1.10;;;15.80;99.90;;;;;;5053741;28;20025;-64
2022/07/06 04:23:34;;;;;;;5.93;2.03;;;15.90;99.90;;;;;;5054193;28;20021;-64
2022/07/06 04:25:59;;;;;;;3.10;1.60;;;15.90;99.90;;;;;;5053727;28;20039;-64
2022/07/06 04:28:25;;;;;;;5.10;0.85;;;15.90;99.90;;;;;;5054903;28;20082;-64
2022/07/06 04:30:51;;;;;;;7.25;2.40;;;15.90;99.90;;;;;;5035910;28;20033;-66
2022/07/06 04:33:16;;;;;;;2.30;0.90;;;16.00;99.90;;;;;;5042883;28;20036;-67
2022/07/06 04:35:42;;;;;;;3.92;1.60;;;16.10;99.90;;;;;;5055127;28;20033;-68
2022/07/06 04:38:08;;;;;;;4.70;1.33;;;16.10;99.90;;;;;;5055112;28;20021;-66
2022/07/06 04:40:33;;;;;;;3.80;1.30;;;16.20;99.90;;;;;;5055181;28;20553;-66
2022/07/06 04:42:59;;;;;;;5.95;1.90;;;16.30;99.90;;;;;;5054852;28;20501;-65
2022/07/06 04:45:25;;;;;;;7.35;2.50;;;16.40;99.90;;;;;;5054645;28;20017;-67
2022/07/06 04:47:51;;;;;;;6.93;1.50;;;16.50;99.90;;;;;;5050283;28;20112;-67
2022/07/06 04:50:16;;;;;;;6.15;2.05;;;16.60;99.90;;;;;;5054763;28;20096;-64
2022/07/06 04:52:42;;;;;;;4.47;1.70;;;16.70;99.90;;;;;;5054709;28;20049;-64
2022/07/06 04:55:08;;;;;;;7.53;2.63;;;16.80;99.90;;;;;;5054560;28;20020;-65
2022/07/06 04:57:34;;;;;;;5.80;1.30;;;16.80;99.90;;;;;;5054768;28;20090;-63
2022/07/06 05:00:00;;;;;;;11.10;2.22;;;17.00;99.90;;;;;;5055123;28;20028;-64
2022/07/06 05:02:26;;;;;;;7.03;2.05;;;17.00;99.90;;;;;;5054436;28;20524;-64
2022/07/06 05:04:51;;;;;;;3.15;1.33;;;17.10;99.90;;;;;;5053669;28;20029;-64
2022/07/06 05:07:17;;;;;;;5.70;1.67;;;17.20;99.90;;;;;;5051344;28;20467;-64
2022/07/06 05:09:43;;;;;;;4.05;1.38;;;17.20;99.90;;;;;;5050223;28;20033;-68
2022/07/06 05:12:09;;;;;;;11.13;4.25;;;17.20;99.90;;;;;;5055409;28;20035;-64
2022/07/06 05:14:35;;;;;;;14.57;4.55;;;17.30;99.90;;;;;;5053474;28;20454;-64
2022/07/06 05:17:01;;;;;;;7.97;2.88;;;17.30;99.90;;;;;;5054408;28;20429;-64
2022/07/06 05:19:27;;;;;;;8.00;2.90;;;17.30;99.90;;;;;;5054885;28;20524;-65
2022/07/06 05:21:52;;;;;;;6.13;2.08;;;17.30;99.90;;;;;;5054464;28;20039;-66
2022/07/06 05:24:18;;;;;;;9.30;2.85;;;17.20;99.90;;;;;;5053117;28;20378;-64
2022/07/06 05:26:45;;;;;;;3.78;1.35;;;17.20;99.90;;;;;;5051692;28;20104;-64
2022/07/06 05:29:10;;;;;;;8.32;2.47;;;17.20;99.90;;;;;;5054229;28;20172;-64
2022/07/06 05:31:36;;;;;;;9.05;2.75;;;17.30;99.90;;;;;;5052869;28;20123;-65
2022/07/06 05:34:02;;;;;;;5.18;0.85;;;17.30;99.90;;;;;;5054538;28;20049;-64
2022/07/06 05:36:27;;;;;;;3.80;1.40;;;17.40;99.90;;;;;;5053027;28;20028;-68
2022/07/06 05:38:53;;;;;;;3.25;1.38;;;17.60;99.90;;;;;;5034633;28;20021;-64
2022/07/06 05:41:18;;;;;;;4.45;1.05;;;17.90;99.80;;;;;;5036748;28;20440;-68
2022/07/06 05:43:45;;;;;;;10.77;3.50;;;18.50;99.30;;;;;;5047043;28;20033;-66
2022/07/06 05:46:11;;;;;;;6.00;2.10;;;19.30;98.60;;;;;;5053566;28;20033;-64
2022/07/06 05:51:20;;;;;;;5.80;1.60;;;20.80;96.00;;;;;;5053646;28;20036;-64
2022/07/06 05:53:47;;;;;;;2.95;0.77;;;21.60;94.50;;;;;;5053678;28;20028;-67
2022/07/06 05:56:13;;;;;;;4.80;1.05;;;22.30;93.60;;;;;;5054274;28;20017;-65
2022/07/06 05:58:38;;;;;;;2.80;0.60;;;23.00;92.40;;;;;;5046205;28;20036;-65
2022/07/06 06:01:06;;;;;;;2.35;1.10;;;23.80;91.70;;;;;;5054193;28;20024;-68
2022/07/06 06:03:32;;;;;;;5.40;1.45;;;24.60;90.60;;;;;;5053805;28;20028;-67
2022/07/06 06:05:58;;;;;;;5.45;1.90;;;25.20;88.60;;;;;;5053623;28;20021;-63
2022/07/06 06:08:24;;;;;;;6.18;2.35;;;25.70;86.00;;;;;;5053109;28;20041;-69
2022/07/06 06:10:49;;;;;;;3.75;1.70;;;25.90;84.00;;;;;;5053183;28;20435;-67
2022/07/06 06:13:15;;;;;;;4.32;2.25;;;26.30;82.90;;;;;;5053532;28;20017;-69
2022/07/06 06:15:41;;;;;;;3.55;1.65;;;26.70;81.40;;;;;;5052010;28;20429;-65
2022/07/06 06:18:06;;;;;;;1.50;0.90;;;27.00;80.40;;;;;;5053869;28;20465;-64
2022/07/06 06:20:32;;;;;;;5.03;1.80;;;27.50;79.40;;;;;;5052541;28;20433;-65
2022/07/06 06:22:59;;;;;;;1.55;0.60;;;28.00;77.60;;;;;;5053007;28;20047;-65
2022/07/06 06:25:33;;;;;;;6.18;1.63;;;28.50;75.90;;;;;;5047678;28;20036;-64
2022/07/06 06:27:59;;;;;;;3.55;0.65;;;28.80;74.00;;;;;;5044946;28;20040;-66
2022/07/06 06:30:25;;;;;;;4.57;1.48;;;29.00;72.60;;;;;;5053716;28;20350;-64
2022/07/06 06:32:52;;;;;;;1.33;0.50;;;29.00;72.40;;;;;;5053239;28;20120;-66
2022/07/06 06:35:17;;;;;;;0.73;0.40;;;29.10;72.20;;;;;;5051449;28;20374;-63
2022/07/06 06:37:43;;;;;;;2.13;0.98;;;29.20;71.80;;;;;;5053134;28;20016;-65
2022/07/06 06:40:09;;;;;;;5.35;1.45;;;29.40;71.80;;;;;;5053290;28;20354;-67
2022/07/06 06:42:37;;;;;;;2.08;0.70;;;29.40;71.40;;;;;;5053137;28;20040;-65
2022/07/06 06:45:04;;;;;;;7.13;1.73;;;29.40;71.00;;;;;;5041833;28;20386;-64
2022/07/06 06:47:30;;;;;;;2.60;0.82;;;29.50;71.30;;;;;;5052872;28;20415;-64
2022/07/06 06:49:55;;;;;;;5.57;1.63;;;29.70;71.40;;;;;;5052603;28;20025;-64
2022/07/06 06:52:21;;;;;;;1.98;0.95;;;30.00;71.10;;;;;;5052074;28;20032;-64
2022/07/06 06:54:46;;;;;;;1.45;0.75;;;30.00;70.40;;;;;;5054359;28;20025;-65
2022/07/06 06:57:12;;;;;;;2.40;0.70;;;29.60;70.50;;;;;;5063810;28;20025;-66
2022/07/06 06:59:37;;;;;;;2.38;1.27;;;29.00;70.70;;;;;;5053237;28;20511;-65
2022/07/06 07:02:03;;;;;;;2.50;1.67;;;28.80;70.70;;;;;;5038965;28;20380;-65
2022/07/06 07:04:30;;;;;;;2.30;1.08;;;29.00;70.70;;;;;;5039598;28;20022;-67
2022/07/06 07:06:56;;;;;;;3.03;1.00;;;29.30;70.30;;;;;;5031641;28;20028;-63
2022/07/06 07:09:21;;;;;;;3.70;0.77;;;29.40;69.80;;;;;;5042302;28;20021;-63
2022/07/06 07:11:47;;;;;;;3.20;1.23;;;29.30;69.60;;;;;;5045217;28;20086;-64
2022/07/06 07:14:13;;;;;;;2.00;0.60;;;29.50;69.60;;;;;;5040517;28;20021;-64
2022/07/06 07:16:38;;;;;;;0.93;0.70;;;29.80;68.80;;;;;;5042472;28;20040;-63
2022/07/06 07:19:04;;;;;;;3.35;1.08;;;30.10;67.70;;;;;;5043701;28;20098;-64
2022/07/06 07:21:29;;;;;;;4.53;0.77;;;30.40;66.80;;;;;;5039008;28;20104;-67
2022/07/06 07:23:55;;;;;;;3.65;1.60;;;30.70;66.50;;;;;;5050668;28;20041;-65
2022/07/06 07:26:20;;;;;;;2.90;1.02;;;30.90;66.10;;;;;;5047359;28;20358;-66
2022/07/06 07:28:46;;;;;;;0.98;0.60;;;31.00;65.60;;;;;;5037671;28;20076;-64
2022/07/06 07:31:12;;;;;;;2.85;0.80;;;30.90;65.40;;;;;;5031897;28;20021;-65
2022/07/06 07:33:38;;;;;;;1.63;0.60;;;30.90;65.00;;;;;;5040562;28;20094;-64
2022/07/06 07:36:04;;;;;;;3.28;1.00;;;30.80;64.90;;;;;;5050878;28;20020;-69
2022/07/06 07:38:29;;;;;;;7.07;0.98;;;30.90;64.80;;;;;;5056989;28;20091;-63
2022/07/06 07:40:55;;;;;;;3.75;1.13;;;31.00;64.80;;;;;;5056764;28;20017;-63
2022/07/06 07:43:21;;;;;;;2.22;0.82;;;31.20;64.90;;;;;;5056788;28;20083;-67
2022/07/06 07:45:47;;;;;;;4.18;1.00;;;31.50;64.70;;;;;;5056925;28;20025;-65
2022/07/06 07:48:14;;;;;;;1.20;0.60;;;31.50;62.20;;;;;;5056967;28;20481;-68
2022/07/06 07:50:41;;;;;;;2.28;1.00;;;31.20;63.30;;;;;;5056934;28;20013;-64
2022/07/06 07:53:06;;;;;;;4.63;1.45;;;31.10;64.10;;;;;;5056965;28;20100;-64
2022/07/06 07:55:32;;;;;;;4.03;0.90;;;30.70;63.40;;;;;;5056542;28;20048;-66
2022/07/06 07:57:57;;;;;;;3.08;0.80;;;30.20;63.80;;;;;;5056864;28;20281;-65
2022/07/06 08:00:24;;;;;;;2.50;0.90;;;29.80;64.60;;;;;;5056584;28;20374;-66
2022/07/06 08:02:50;;;;;;;4.63;1.75;;;29.30;65.40;;;;;;5056602;28;20013;-65
2022/07/06 08:05:15;;;;;;;2.97;0.70;;;28.90;66.40;;;;;;5056691;28;20021;-65
2022/07/06 08:07:44;;;;;;;3.13;1.27;;;28.70;66.30;;;;;;5056903;28;20048;-65
2022/07/06 08:10:10;;;;;;;4.18;1.65;;;28.50;66.00;;;;;;5055962;28;20028;-67
2022/07/06 08:12:36;;;;;;;5.18;1.08;;;28.30;66.10;;;;;;5055163;28;20029;-65
2022/07/06 08:15:02;;;;;;;2.00;0.70;;;28.10;66.70;;;;;;5053927;28;20025;-66
2022/07/06 08:17:28;;;;;;;5.95;1.08;;;27.90;67.70;;;;;;5055769;28;20102;-65
2022/07/06 08:19:53;;;;;;;1.15;0.50;;;27.80;68.50;;;;;;5055915;28;20056;-65
2022/07/06 08:22:19;;;;;;;3.58;1.30;;;27.70;68.60;;;;;;5055228;28;20626;-65
2022/07/06 08:24:44;;;;;;;2.25;1.20;;;27.70;67.60;;;;;;5055204;28;20502;-65
2022/07/06 08:27:10;;;;;;;6.35;0.90;;;27.80;68.10;;;;;;5055967;28;20441;-65
2022/07/06 08:29:35;;;;;;;2.53;0.70;;;28.30;67.30;;;;;;5055765;28;20032;-64
2022/07/06 08:32:01;;;;;;;4.15;0.63;;;29.10;66.90;;;;;;5055110;28;20096;-66
2022/07/06 08:34:27;;;;;;;4.25;1.30;;;30.10;65.80;;;;;;5054432;28;20037;-64
2022/07/06 08:36:52;;;;;;;3.83;1.67;;;30.50;62.10;;;;;;5036367;28;20057;-65
2022/07/06 08:39:18;;;;;;;3.63;1.13;;;30.60;62.70;;;;;;5052260;28;20033;-64
2022/07/06 08:41:47;;;;;;;1.00;0.50;;;30.90;61.90;;;;;;5054561;28;20370;-64
2022/07/06 08:44:14;;;;;;;3.60;0.80;;;31.30;61.10;;;;;;5054670;28;20075;-69
2022/07/06 08:46:40;;;;;;;11.48;3.50;;;31.80;60.50;;;;;;5053320;28;20024;-65
2022/07/06 08:49:07;;;;;;;1.52;0.60;;;32.20;58.70;;;;;;5055133;28;20033;-65
2022/07/06 08:51:36;;;;;;;2.45;0.75;;;32.30;58.00;;;;;;5054138;28;20029;-64
2022/07/06 08:54:05;;;;;;;1.98;0.63;;;32.70;57.80;;;;;;5054759;28;20028;-65
2022/07/06 08:56:30;;;;;;;4.72;0.70;;;33.30;57.10;;;;;;5055339;28;20347;-65
2022/07/06 08:58:56;;;;;;;3.13;0.68;;;33.60;56.00;;;;;;5055281;28;20051;-64
2022/07/06 09:01:22;;;;;;;3.00;0.80;;;33.60;55.80;;;;;;5053625;28;20032;-66
2022/07/06 09:03:51;;;;;;;1.50;0.90;;;33.40;56.10;;;;;;5054517;28;20057;-64
2022/07/06 09:06:23;;;;;;;5.43;1.10;;;33.20;55.80;;;;;;5054730;28;20044;-64
2022/07/06 09:08:49;;;;;;;6.10;1.40;;;32.90;55.40;;;;;;5054929;28;20056;-65
2022/07/06 09:11:15;;;;;;;1.83;0.77;;;32.40;56.20;;;;;;5054196;28;20021;-64
2022/07/06 09:13:40;;;;;;;3.63;0.80;;;32.00;55.70;;;;;;5054412;28;20031;-64
2022/07/06 09:16:10;;;;;;;1.70;0.95;;;31.70;56.20;;;;;;5054323;28;20106;-64
2022/07/06 09:18:43;;;;;;;11.93;4.90;;;31.30;57.10;;;;;;5055054;28;20103;-64
2022/07/06 09:21:08;;;;;;;5.57;2.50;;;30.90;56.70;;;;;;5054630;28;20032;-64
2022/07/06 09:23:35;;;;;;;9.10;2.50;;;30.70;56.50;;;;;;5052100;28;20025;-64
2022/07/06 09:26:06;;;;;;;2.13;1.00;;;30.60;57.30;;;;;;5053452;28;20371;-64
2022/07/06 09:28:42;;;;;;;4.50;1.20;;;30.60;57.80;;;;;;5053101;28;20128;-64
2022/07/06 09:31:09;;;;;;;4.13;1.50;;;30.80;58.60;;;;;;5050017;28;20103;-65
2022/07/06 09:33:35;;;;;;;7.93;2.50;;;30.90;56.70;;;;;;5036223;28;20046;-65
2022/07/06 09:36:02;;;;;;;3.38;0.90;;;30.90;57.50;;;;;;5066402;28;20036;-65
2022/07/06 09:38:28;;;;;;;7.03;3.20;;;31.20;58.10;;;;;;5039061;28;20108;-64
2022/07/06 09:40:54;;;;;;;1.52;0.90;;;31.70;57.20;;;;;;5039239;28;20033;-65
2022/07/06 09:43:22;;;;;;;3.30;1.50;;;32.20;56.00;;;;;;5053121;28;20036;-68
2022/07/06 09:45:52;;;;;;;2.05;1.45;;;32.50;55.40;;;;;;5054557;28;20048;-65
2022/07/06 09:48:27;;;;;;;3.60;0.88;;;32.60;54.50;;;;;;5053041;28;20072;-66
2022/07/06 09:51:05;;;;;;;4.85;1.38;;;32.50;55.80;;;;;;5035400;28;20080;-67
2022/07/06 09:53:31;;;;;;;9.20;4.15;;;32.60;54.40;;;;;;5049887;28;20417;-65
2022/07/06 09:56:05;;;;;;;6.53;2.92;;;32.30;54.20;;;;;;5058513;28;20100;-64
2022/07/06 09:58:30;;;;;;;4.57;1.75;;;32.00;54.50;;;;;;5048756;28;20021;-65
2022/07/06 10:00:56;;;;;;;4.85;1.88;;;31.90;55.90;;;;;;5034629;28;20032;-65
2022/07/06 10:03:22;;;;;;;3.50;1.85;;;32.40;53.80;;;;;;5050600;28;20049;-65
2022/07/06 10:05:49;;;;;;;2.53;1.15;;;32.80;52.70;;;;;;5054264;28;20020;-65
2022/07/06 10:08:16;;;;;;;4.57;1.95;;;33.30;54.10;;;;;;5052447;28;20033;-65
2022/07/06 10:10:43;;;;;;;3.05;1.00;;;33.70;53.80;;;;;;5053749;28;20074;-66
2022/07/06 10:13:09;;;;;;;2.00;1.25;;;34.10;53.10;;;;;;5049969;28;20091;-63
2022/07/06 10:15:37;;;;;;;4.47;2.10;;;34.40;53.40;;;;;;5036676;28;20093;-65
2022/07/06 10:18:05;;;;;;;4.35;1.58;;;34.70;53.20;;;;;;5034170;28;20071;-65
2022/07/06 10:20:33;;;;;;;6.93;2.70;;;34.70;52.40;;;;;;5034354;28;20113;-65
2022/07/06 10:23:01;;;;;;;3.63;0.80;;;34.70;52.40;;;;;;5031958;28;20033;-67
2022/07/06 10:25:27;;;;;;;5.57;2.13;;;34.40;52.40;;;;;;5042748;28;20516;-64
2022/07/06 10:27:54;;;;;;;3.47;1.30;;;34.10;53.00;;;;;;5033819;28;20025;-66
2022/07/06 10:30:20;;;;;;;4.47;1.27;;;34.50;52.50;;;;;;5034304;28;20029;-67
2022/07/06 10:32:48;;;;;;;3.53;1.80;;;34.70;51.90;;;;;;5045902;28;20033;-65
2022/07/06 10:45:47;;;;;;;3.25;1.10;;;36.20;49.70;;;;;;5029783;28;20390;-66
2022/07/06 10:48:12;;;;;;;3.72;1.58;;;36.30;49.80;;;;;;5027727;28;20080;-64
2022/07/06 10:50:38;;;;;;;1.40;1.10;;;36.30;49.70;;;;;;5017303;28;20034;-65
2022/07/06 10:53:11;;;;;;;2.13;1.15;;;36.20;48.80;;;;;;4996824;28;20421;-65
2022/07/06 10:55:38;;;;;;;3.10;1.10;;;36.20;48.70;;;;;;4990468;28;20560;-68
2022/07/06 10:58:05;;;;;;;3.70;0.60;;;36.50;48.30;;;;;;4990291;28;20045;-67
2022/07/06 11:00:50;;;;;;;2.03;1.00;;;36.60;47.30;;;;;;4990899;28;20026;-65
2022/07/06 11:03:39;;;;;;;1.52;0.60;;;36.30;47.40;;;;;;5005683;28;20744;-65
2022/07/06 11:06:07;;;;;;;1.85;1.00;;;36.00;47.40;;;;;;4991608;28;20033;-64
2022/07/06 11:08:44;;;;;;;1.42;0.60;;;36.00;47.80;;;;;;4991169;28;20369;-67
2022/07/06 11:11:16;;;;;;;1.05;0.55;;;35.70;47.50;;;;;;5001410;28;20021;-68
2022/07/06 11:13:43;;;;;;;1.77;0.50;;;35.80;47.90;;;;;;5010930;28;20644;-65
2022/07/06 11:16:09;;;;;;;5.13;1.25;;;35.60;47.10;;;;;;5007165;28;20050;-64
2022/07/06 11:18:45;;;;;;;1.92;0.73;;;35.30;47.90;;;;;;5008078;28;20030;-66
2022/07/06 11:21:32;;;;;;;2.75;0.85;;;35.30;47.40;;;;;;4999529;28;20026;-65
2022/07/06 11:23:58;;;;;;;2.08;0.93;;;34.70;47.90;;;;;;5002892;28;20042;-65
2022/07/06 11:26:24;;;;;;;1.67;0.80;;;34.80;47.70;;;;;;5008266;28;20484;-65
2022/07/06 11:28:51;;;;;;;0.80;0.50;;;35.00;48.60;;;;;;5010272;28;20026;-65
2022/07/06 11:31:17;;;;;;;1.75;0.70;;;34.90;48.50;;;;;;4995327;28;20073;-65
2022/07/06 11:33:46;;;;;;;3.00;0.75;;;35.00;47.90;;;;;;5010025;28;20038;-67
2022/07/06 11:36:20;;;;;;;0.80;0.43;;;34.90;48.80;;;;;;5008330;28;20444;-67
2022/07/06 11:38:47;;;;;;;2.75;0.90;;;34.70;48.70;;;;;;4998925;28;20556;-67
2022/07/06 11:41:14;;;;;;;2.83;0.60;;;34.50;49.10;;;;;;5000247;28;20022;-65
2022/07/06 11:43:45;;;;;;;1.35;0.63;;;34.20;49.00;;;;;;5002555;28;20038;-65
2022/07/06 11:46:21;;;;;;;2.10;0.82;;;33.90;49.90;;;;;;4980649;28;20041;-65
2022/07/06 11:48:55;;;;;;;3.65;1.00;;;33.50;49.80;;;;;;4983560;28;20072;-65
2022/07/06 11:51:23;;;;;;;1.70;0.90;;;33.30;49.70;;;;;;4994815;28;20068;-65
2022/07/06 11:53:53;;;;;;;1.65;0.60;;;33.40;49.90;;;;;;5027386;28;20044;-68
2022/07/06 11:56:21;;;;;;;2.90;0.80;;;33.00;50.00;;;;;;4980812;28;20027;-66
2022/07/06 11:58:48;;;;;;;2.38;0.68;;;32.50;50.60;;;;;;4994179;28;20018;-65
2022/07/06 12:01:15;;;;;;;3.65;0.68;;;31.90;51.60;;;;;;4991368;28;20110;-65
2022/07/06 12:03:41;;;;;;;3.95;0.88;;;31.30;51.10;;;;;;4977708;28;20027;-64
2022/07/06 12:06:16;;;;;;;1.42;0.90;;;30.90;51.50;;;;;;4976290;28;20381;-64
2022/07/06 12:08:47;;;;;;;2.92;0.90;;;30.70;52.30;;;;;;4990514;28;20061;-65
2022/07/06 12:11:30;;;;;;;1.65;0.57;;;30.40;53.00;;;;;;4994552;28;20034;-66
2022/07/06 12:13:58;;;;;;;4.65;0.65;;;30.30;53.90;;;;;;4990019;28;20360;-64
2022/07/06 12:16:35;;;;;;;2.25;0.60;;;30.10;53.70;;;;;;4991021;28;20027;-65
2022/07/06 12:19:02;;;;;;;1.63;0.68;;;29.70;53.80;;;;;;4983385;28;20033;-66
2022/07/06 12:21:28;;;;;;;3.38;0.85;;;29.60;54.90;;;;;;4986767;28;20015;-64
2022/07/06 12:23:54;;;;;;;3.35;1.23;;;30.00;54.40;;;;;;5001807;28;20018;-66
2022/07/06 12:26:28;;;;;;;4.25;0.88;;;30.10;53.90;;;;;;4985220;28;20054;-64
2022/07/06 12:29:12;;;;;;;8.52;1.02;;;30.00;54.30;;;;;;5012641;28;20022;-65
2022/07/06 12:31:40;;;;;;;1.95;1.00;;;29.40;55.30;;;;;;5002236;28;20583;-68
2022/07/06 12:34:16;;;;;;;4.40;0.80;;;28.80;56.60;;;;;;5006705;28;20046;-65
2022/07/06 12:36:51;;;;;;;1.58;0.90;;;28.30;57.70;;;;;;4984349;28;20041;-65
2022/07/06 12:39:19;;;;;;;3.22;1.20;;;28.30;57.50;;;;;;4976221;28;20460;-67
2022/07/06 12:41:54;;;;;;;2.35;0.77;;;28.30;58.20;;;;;;4988554;28;20040;-65
2022/07/06 12:44:22;;;;;;;3.03;1.02;;;28.40;58.30;;;;;;5014699;28;20037;-67
2022/07/06 12:46:49;;;;;;;4.47;1.10;;;28.50;58.20;;;;;;5015075;28;20024;-66
2022/07/06 12:49:22;;;;;;;7.15;1.25;;;28.60;58.30;;;;;;5013332;28;20046;-64
2022/07/06 12:51:52;;;;;;;6.70;1.20;;;28.50;58.60;;;;;;5014374;28;20018;-64
2022/07/06 12:54:18;;;;;;;4.55;1.48;;;28.40;59.10;;;;;;5014784;28;20061;-64
2022/07/06 12:57:06;;;;;;;3.17;1.08;;;28.10;59.60;;;;;;5014093;28;20033;-64
2022/07/06 12:59:34;;;;;;;3.00;0.93;;;27.50;60.60;;;;;;5014629;28;20018;-65